sensor_id;sensor_type;location;lat;lon;timestamp;pressure;altitude;pressure_sealevel;temperature;humidity
80574;BME280;69929;52.390;13.078;2023-05-10T00:01:07;100906.84;;;10.83;54.76
80574;BME280;69929;52.390;13.078;2023-05-10T00:03:32;100903.47;;;10.79;55.37
80574;BME280;69929;52.390;13.078;2023-05-10T00:05:58;100904.41;;;10.78;55.20
80574;BME280;69929;52.390;13.078;2023-05-10T00:08:23;100898.38;;;10.75;55.15
80574;BME280;69929;52.390;13.078;2023-05-10T00:10:49;100900.13;;;10.76;55.29
80574;BME280;69929;52.390;13.078;2023-05-10T00:13:14;100897.81;;;10.68;55.57
80574;BME280;69929;52.390;13.078;2023-05-10T00:15:40;100892.53;;;10.68;55.72
80574;BME280;69929;52.390;13.078;2023-05-10T00:18:05;100892.25;;;10.74;54.93
80574;BME280;69929;52.390;13.078;2023-05-10T00:20:30;100887.09;;;10.71;56.11
80574;BME280;69929;52.390;13.078;2023-05-10T00:22:56;100885.38;;;10.70;55.32
80574;BME280;69929;52.390;13.078;2023-05-10T00:25:21;100889.22;;;10.63;55.99
80574;BME280;69929;52.390;13.078;2023-05-10T00:27:47;100871.75;;;10.59;55.64
80574;BME280;69929;52.390;13.078;2023-05-10T00:30:13;100877.34;;;10.53;55.99
80574;BME280;69929;52.390;13.078;2023-05-10T00:32:38;100875.69;;;10.50;56.70
80574;BME280;69929;52.390;13.078;2023-05-10T00:35:04;100881.63;;;10.55;56.07
80574;BME280;69929;52.390;13.078;2023-05-10T00:37:29;100876.53;;;10.51;56.76
80574;BME280;69929;52.390;13.078;2023-05-10T00:39:55;100868.34;;;10.57;56.66
80574;BME280;69929;52.390;13.078;2023-05-10T00:42:20;100872.06;;;10.53;56.82
80574;BME280;69929;52.390;13.078;2023-05-10T00:44:46;100870.19;;;10.55;55.98
80574;BME280;69929;52.390;13.078;2023-05-10T00:47:12;100869.00;;;10.41;56.72
80574;BME280;69929;52.390;13.078;2023-05-10T00:49:37;100869.16;;;10.38;56.66
80574;BME280;69929;52.390;13.078;2023-05-10T00:52:03;100864.00;;;10.35;57.22
80574;BME280;69929;52.390;13.078;2023-05-10T00:54:28;100866.19;;;10.24;57.87
80574;BME280;69929;52.390;13.078;2023-05-10T00:56:55;100856.53;;;10.23;57.41
80574;BME280;69929;52.390;13.078;2023-05-10T00:59:22;100869.00;;;10.41;56.55
80574;BME280;69929;52.390;13.078;2023-05-10T01:01:47;100860.78;;;10.27;57.28
80574;BME280;69929;52.390;13.078;2023-05-10T01:04:13;100852.97;;;10.24;57.25
80574;BME280;69929;52.390;13.078;2023-05-10T01:06:42;100859.44;;;10.17;58.30
80574;BME280;69929;52.390;13.078;2023-05-10T01:09:08;100854.31;;;10.14;57.67
80574;BME280;69929;52.390;13.078;2023-05-10T01:11:38;100855.47;;;10.06;57.90
80574;BME280;69929;52.390;13.078;2023-05-10T01:14:04;100851.50;;;9.96;58.20
80574;BME280;69929;52.390;13.078;2023-05-10T01:16:36;100859.06;;;9.83;58.95
80574;BME280;69929;52.390;13.078;2023-05-10T01:19:04;100851.19;;;9.82;59.07
80574;BME280;69929;52.390;13.078;2023-05-10T01:36:19;100846.97;;;9.55;60.60
80574;BME280;69929;52.390;13.078;2023-05-10T01:38:56;100849.91;;;9.48;60.19
80574;BME280;69929;52.390;13.078;2023-05-10T01:41:25;100853.59;;;9.44;60.72
80574;BME280;69929;52.390;13.078;2023-05-10T01:44:04;100851.25;;;9.36;60.59
80574;BME280;69929;52.390;13.078;2023-05-10T01:46:39;100845.63;;;9.45;60.32
80574;BME280;69929;52.390;13.078;2023-05-10T01:49:11;100837.22;;;9.35;60.67
80574;BME280;69929;52.390;13.078;2023-05-10T01:51:42;100842.78;;;9.28;60.83
80574;BME280;69929;52.390;13.078;2023-05-10T01:54:12;100840.31;;;9.23;61.30
80574;BME280;69929;52.390;13.078;2023-05-10T01:56:39;100845.59;;;9.23;61.37
80574;BME280;69929;52.390;13.078;2023-05-10T01:59:10;100835.94;;;9.24;61.52
80574;BME280;69929;52.390;13.078;2023-05-10T02:01:37;100839.66;;;9.18;61.24
80574;BME280;69929;52.390;13.078;2023-05-10T02:04:04;100838.84;;;9.16;60.86
80574;BME280;69929;52.390;13.078;2023-05-10T02:06:31;100837.34;;;9.09;61.77
80574;BME280;69929;52.390;13.078;2023-05-10T02:08:58;100837.50;;;9.06;61.41
80574;BME280;69929;52.390;13.078;2023-05-10T02:11:26;100843.78;;;9.02;61.45
80574;BME280;69929;52.390;13.078;2023-05-10T02:13:53;100842.94;;;9.01;61.70
80574;BME280;69929;52.390;13.078;2023-05-10T02:16:23;100841.38;;;8.95;61.91
80574;BME280;69929;52.390;13.078;2023-05-10T02:18:53;100837.94;;;8.93;62.17
80574;BME280;69929;52.390;13.078;2023-05-10T02:21:20;100838.00;;;8.92;62.35
80574;BME280;69929;52.390;13.078;2023-05-10T02:23:48;100834.78;;;8.84;62.52
80574;BME280;69929;52.390;13.078;2023-05-10T02:26:16;100831.19;;;8.86;61.98
80574;BME280;69929;52.390;13.078;2023-05-10T02:28:43;100834.84;;;8.82;62.15
80574;BME280;69929;52.390;13.078;2023-05-10T02:31:10;100829.69;;;8.79;62.74
80574;BME280;69929;52.390;13.078;2023-05-10T02:33:38;100832.25;;;8.80;62.68
80574;BME280;69929;52.390;13.078;2023-05-10T02:36:07;100830.16;;;8.67;62.82
80574;BME280;69929;52.390;13.078;2023-05-10T02:38:33;100830.47;;;8.57;63.47
80574;BME280;69929;52.390;13.078;2023-05-10T02:41:01;100827.03;;;8.55;62.97
80574;BME280;69929;52.390;13.078;2023-05-10T02:43:27;100827.34;;;8.46;63.50
80574;BME280;69929;52.390;13.078;2023-05-10T02:45:55;100836.53;;;8.59;63.33
80574;BME280;69929;52.390;13.078;2023-05-10T02:48:20;100834.13;;;8.53;63.66
80574;BME280;69929;52.390;13.078;2023-05-10T02:50:47;100833.22;;;8.54;63.41
80574;BME280;69929;52.390;13.078;2023-05-10T02:53:20;100829.66;;;8.55;63.02
80574;BME280;69929;52.390;13.078;2023-05-10T02:55:49;100827.13;;;8.52;63.69
80574;BME280;69929;52.390;13.078;2023-05-10T02:58:16;100839.38;;;8.53;63.72
80574;BME280;69929;52.390;13.078;2023-05-10T03:00:43;100827.13;;;8.52;63.51
80574;BME280;69929;52.390;13.078;2023-05-10T03:03:08;100825.41;;;8.51;63.54
80574;BME280;69929;52.390;13.078;2023-05-10T03:05:34;100821.66;;;8.58;63.04
80574;BME280;69929;52.390;13.078;2023-05-10T03:07:59;100820.78;;;8.58;63.34
80574;BME280;69929;52.390;13.078;2023-05-10T03:10:29;100814.56;;;8.60;63.04
80574;BME280;69929;52.390;13.078;2023-05-10T03:16:29;100814.13;;;8.48;63.67
80574;BME280;69929;52.390;13.078;2023-05-10T03:19:09;100815.97;;;8.45;63.65
80574;BME280;69929;52.390;13.078;2023-05-10T03:21:38;100811.66;;;8.43;63.93
80574;BME280;69929;52.390;13.078;2023-05-10T03:24:07;100818.94;;;8.35;64.42
80574;BME280;69929;52.390;13.078;2023-05-10T03:26:34;100813.78;;;8.32;64.44
80574;BME280;69929;52.390;13.078;2023-05-10T03:29:00;100814.75;;;8.29;64.61
80574;BME280;69929;52.390;13.078;2023-05-10T03:31:27;100810.34;;;8.30;64.40
80574;BME280;69929;52.390;13.078;2023-05-10T03:33:52;100814.00;;;8.25;64.60
80574;BME280;69929;52.390;13.078;2023-05-10T03:36:18;100817.56;;;8.24;64.24
80574;BME280;69929;52.390;13.078;2023-05-10T03:38:44;100809.69;;;8.23;64.28
80574;BME280;69929;52.390;13.078;2023-05-10T03:41:09;100816.16;;;8.14;65.39
80574;BME280;69929;52.390;13.078;2023-05-10T03:43:35;100816.25;;;8.11;65.60
80574;BME280;69929;52.390;13.078;2023-05-10T03:46:04;100814.53;;;8.10;65.25
80574;BME280;69929;52.390;13.078;2023-05-10T03:48:31;100814.72;;;8.04;65.78
80574;BME280;69929;52.390;13.078;2023-05-10T03:50:57;100816.75;;;7.96;65.96
80574;BME280;69929;52.390;13.078;2023-05-10T03:53:22;100814.09;;;7.97;65.74
80574;BME280;69929;52.390;13.078;2023-05-10T03:55:48;100812.59;;;8.15;64.94
80574;BME280;69929;52.390;13.078;2023-05-10T03:58:14;100809.53;;;8.27;64.81
80574;BME280;69929;52.390;13.078;2023-05-10T04:00:39;100808.84;;;8.22;64.94
80574;BME280;69929;52.390;13.078;2023-05-10T04:03:10;100810.66;;;8.20;64.78
80574;BME280;69929;52.390;13.078;2023-05-10T04:05:36;100810.56;;;8.23;65.13
80574;BME280;69929;52.390;13.078;2023-05-10T04:08:02;100813.19;;;8.23;64.76
80574;BME280;69929;52.390;13.078;2023-05-10T04:10:27;100805.81;;;8.33;64.66
80574;BME280;69929;52.390;13.078;2023-05-10T04:12:53;100802.94;;;8.41;64.46
80574;BME280;69929;52.390;13.078;2023-05-10T04:15:18;100804.56;;;8.45;64.56
80574;BME280;69929;52.390;13.078;2023-05-10T04:17:44;100800.09;;;8.47;64.20
80574;BME280;69929;52.390;13.078;2023-05-10T04:20:10;100798.78;;;8.59;63.62
80574;BME280;69929;52.390;13.078;2023-05-10T04:22:35;100802.16;;;8.62;63.93
80574;BME280;69929;52.390;13.078;2023-05-10T04:25:01;100808.44;;;8.60;63.91
80574;BME280;69929;52.390;13.078;2023-05-10T04:27:26;100804.69;;;8.66;63.86
80574;BME280;69929;52.390;13.078;2023-05-10T04:29:52;100814.28;;;8.68;64.04
80574;BME280;69929;52.390;13.078;2023-05-10T04:32:17;100800.41;;;8.87;62.72
80574;BME280;69929;52.390;13.078;2023-05-10T04:34:43;100798.28;;;8.96;62.43
80574;BME280;69929;52.390;13.078;2023-05-10T04:37:08;100792.22;;;8.94;62.91
80574;BME280;69929;52.390;13.078;2023-05-10T04:39:34;100787.84;;;8.93;63.19
80574;BME280;69929;52.390;13.078;2023-05-10T04:42:01;100780.44;;;9.03;62.66
80574;BME280;69929;52.390;13.078;2023-05-10T04:44:28;100780.94;;;9.13;62.05
80574;BME280;69929;52.390;13.078;2023-05-10T04:46:53;100784.25;;;9.18;62.08
80574;BME280;69929;52.390;13.078;2023-05-10T04:49:19;100779.59;;;9.25;61.77
80574;BME280;69929;52.390;13.078;2023-05-10T04:51:44;100776.66;;;9.32;61.33
80574;BME280;69929;52.390;13.078;2023-05-10T04:54:09;100766.78;;;9.37;61.15
80574;BME280;69929;52.390;13.078;2023-05-10T04:56:35;100776.91;;;9.48;60.19
80574;BME280;69929;52.390;13.078;2023-05-10T04:59:00;100775.66;;;9.57;60.19
80574;BME280;69929;52.390;13.078;2023-05-10T05:01:26;100773.81;;;9.59;60.49
80574;BME280;69929;52.390;13.078;2023-05-10T05:03:51;100778.84;;;9.65;60.41
80574;BME280;69929;52.390;13.078;2023-05-10T05:06:18;100771.47;;;9.73;59.92
80574;BME280;69929;52.390;13.078;2023-05-10T05:08:43;100776.50;;;9.80;60.18
80574;BME280;69929;52.390;13.078;2023-05-10T05:11:09;100776.38;;;9.83;59.61
80574;BME280;69929;52.390;13.078;2023-05-10T05:13:34;100777.94;;;9.87;59.91
80574;BME280;69929;52.390;13.078;2023-05-10T05:16:01;100779.28;;;9.97;59.20
80574;BME280;69929;52.390;13.078;2023-05-10T05:18:26;100777.31;;;10.02;58.85
80574;BME280;69929;52.390;13.078;2023-05-10T05:20:52;100777.19;;;10.05;58.86
80574;BME280;69929;52.390;13.078;2023-05-10T05:23:17;100775.84;;;10.16;58.87
80574;BME280;69929;52.390;13.078;2023-05-10T05:25:43;100770.31;;;10.22;58.61
80574;BME280;69929;52.390;13.078;2023-05-10T05:28:08;100769.88;;;10.31;58.36
80574;BME280;69929;52.390;13.078;2023-05-10T05:30:34;100768.75;;;10.38;58.74
80574;BME280;69929;52.390;13.078;2023-05-10T05:32:59;100776.47;;;10.43;58.11
80574;BME280;69929;52.390;13.078;2023-05-10T05:35:25;100773.44;;;10.51;57.77
80574;BME280;69929;52.390;13.078;2023-05-10T05:37:50;100767.91;;;10.57;58.09
80574;BME280;69929;52.390;13.078;2023-05-10T05:40:15;100773.06;;;10.60;57.52
80574;BME280;69929;52.390;13.078;2023-05-10T05:42:41;100769.50;;;10.61;58.27
80574;BME280;69929;52.390;13.078;2023-05-10T05:45:07;100769.75;;;10.74;57.55
80574;BME280;69929;52.390;13.078;2023-05-10T05:47:34;100757.09;;;10.80;57.42
80574;BME280;69929;52.390;13.078;2023-05-10T05:49:59;100774.44;;;10.88;57.61
80574;BME280;69929;52.390;13.078;2023-05-10T05:52:24;100763.44;;;10.97;56.73
80574;BME280;69929;52.390;13.078;2023-05-10T05:54:50;100764.63;;;11.09;57.24
80574;BME280;69929;52.390;13.078;2023-05-10T05:57:15;100770.41;;;11.17;56.31
80574;BME280;69929;52.390;13.078;2023-05-10T05:59:40;100767.09;;;11.31;55.98
80574;BME280;69929;52.390;13.078;2023-05-10T06:02:09;100769.16;;;11.43;56.03
80574;BME280;69929;52.390;13.078;2023-05-10T06:04:35;100779.13;;;11.55;54.96
80574;BME280;69929;52.390;13.078;2023-05-10T06:07:00;100766.22;;;11.67;55.18
80574;BME280;69929;52.390;13.078;2023-05-10T06:09:25;100773.69;;;11.76;54.58
80574;BME280;69929;52.390;13.078;2023-05-10T06:11:51;100775.97;;;11.84;54.27
80574;BME280;69929;52.390;13.078;2023-05-10T06:14:16;100775.59;;;11.91;53.48
80574;BME280;69929;52.390;13.078;2023-05-10T06:16:42;100769.69;;;12.04;53.08
80574;BME280;69929;52.390;13.078;2023-05-10T06:19:07;100777.41;;;12.08;53.04
80574;BME280;69929;52.390;13.078;2023-05-10T06:21:33;100772.56;;;12.17;53.01
80574;BME280;69929;52.390;13.078;2023-05-10T06:23:58;100757.97;;;12.25;52.38
80574;BME280;69929;52.390;13.078;2023-05-10T06:26:23;100769.78;;;12.36;52.12
80574;BME280;69929;52.390;13.078;2023-05-10T06:28:49;100765.13;;;12.41;52.49
80574;BME280;69929;52.390;13.078;2023-05-10T06:31:14;100764.44;;;12.53;52.12
80574;BME280;69929;52.390;13.078;2023-05-10T06:33:40;100769.88;;;12.67;52.54
80574;BME280;69929;52.390;13.078;2023-05-10T06:36:05;100769.88;;;12.67;51.91
80574;BME280;69929;52.390;13.078;2023-05-10T06:38:31;100747.22;;;12.78;51.37
80574;BME280;69929;52.390;13.078;2023-05-10T06:40:56;100760.31;;;12.81;51.51
80574;BME280;69929;52.390;13.078;2023-05-10T06:43:22;100761.69;;;12.88;51.19
80574;BME280;69929;52.390;13.078;2023-05-10T06:45:48;100765.78;;;12.94;51.04
80574;BME280;69929;52.390;13.078;2023-05-10T06:48:13;100762.56;;;13.04;51.38
80574;BME280;69929;52.390;13.078;2023-05-10T06:50:39;100765.63;;;13.13;50.93
80574;BME280;69929;52.390;13.078;2023-05-10T06:53:04;100765.97;;;13.22;50.50
80574;BME280;69929;52.390;13.078;2023-05-10T06:55:29;100741.47;;;13.33;50.02
80574;BME280;69929;52.390;13.078;2023-05-10T06:57:55;100759.47;;;13.44;50.15
80574;BME280;69929;52.390;13.078;2023-05-10T07:00:20;100764.19;;;13.69;49.79
80574;BME280;69929;52.390;13.078;2023-05-10T07:02:46;100762.63;;;13.81;49.42
80574;BME280;69929;52.390;13.078;2023-05-10T07:05:12;100761.72;;;13.97;48.64
80574;BME280;69929;52.390;13.078;2023-05-10T07:07:38;100760.47;;;14.02;48.87
80574;BME280;69929;52.390;13.078;2023-05-10T07:10:03;100757.25;;;13.97;48.23
80574;BME280;69929;52.390;13.078;2023-05-10T07:12:30;100756.31;;;13.98;47.95
80574;BME280;69929;52.390;13.078;2023-05-10T07:14:55;100749.03;;;14.16;48.51
80574;BME280;69929;52.390;13.078;2023-05-10T07:17:21;100752.00;;;14.26;48.25
80574;BME280;69929;52.390;13.078;2023-05-10T07:19:46;100747.81;;;14.36;47.98
80574;BME280;69929;52.390;13.078;2023-05-10T07:22:12;100758.63;;;14.33;47.22
80574;BME280;69929;52.390;13.078;2023-05-10T07:24:37;100751.03;;;14.41;47.05
80574;BME280;69929;52.390;13.078;2023-05-10T07:27:02;100747.53;;;14.55;46.88
80574;BME280;69929;52.390;13.078;2023-05-10T07:29:28;100740.44;;;14.70;46.68
80574;BME280;69929;52.390;13.078;2023-05-10T07:31:53;100751.06;;;14.70;46.75
80574;BME280;69929;52.390;13.078;2023-05-10T07:34:19;100747.94;;;14.78;46.84
80574;BME280;69929;52.390;13.078;2023-05-10T07:36:44;100754.19;;;14.77;46.75
80574;BME280;69929;52.390;13.078;2023-05-10T07:39:10;100752.00;;;14.83;46.40
80574;BME280;69929;52.390;13.078;2023-05-10T07:41:35;100751.91;;;14.85;46.62
80574;BME280;69929;52.390;13.078;2023-05-10T07:44:02;100749.50;;;14.95;46.90
80574;BME280;69929;52.390;13.078;2023-05-10T07:46:28;100752.31;;;15.20;46.45
80574;BME280;69929;52.390;13.078;2023-05-10T07:48:54;100759.28;;;15.36;45.41
80574;BME280;69929;52.390;13.078;2023-05-10T07:51:19;100765.69;;;15.46;45.47
80574;BME280;69929;52.390;13.078;2023-05-10T07:53:44;100762.25;;;15.58;44.49
80574;BME280;69929;52.390;13.078;2023-05-10T07:56:21;100767.16;;;15.65;44.88
80574;BME280;69929;52.390;13.078;2023-05-10T07:58:47;100763.53;;;15.66;44.92
80574;BME280;69929;52.390;13.078;2023-05-10T08:01:12;100755.72;;;15.63;44.87
80574;BME280;69929;52.390;13.078;2023-05-10T08:03:38;100760.72;;;15.82;44.99
80574;BME280;69929;52.390;13.078;2023-05-10T08:06:03;100759.47;;;15.87;44.34
80574;BME280;69929;52.390;13.078;2023-05-10T08:08:29;100762.56;;;16.07;44.18
80574;BME280;69929;52.390;13.078;2023-05-10T08:10:54;100763.53;;;16.06;44.69
80574;BME280;69929;52.390;13.078;2023-05-10T08:13:20;100757.56;;;16.28;44.42
80574;BME280;69929;52.390;13.078;2023-05-10T08:15:46;100762.47;;;16.60;44.65
80574;BME280;69929;52.390;13.078;2023-05-10T08:18:11;100762.25;;;16.50;43.56
80574;BME280;69929;52.390;13.078;2023-05-10T08:20:37;100773.13;;;16.73;43.06
80574;BME280;69929;52.390;13.078;2023-05-10T08:23:02;100769.63;;;16.59;43.28
80574;BME280;69929;52.390;13.078;2023-05-10T08:25:28;100764.63;;;16.55;43.38
80574;BME280;69929;52.390;13.078;2023-05-10T08:27:53;100765.22;;;16.71;42.85
80574;BME280;69929;52.390;13.078;2023-05-10T08:30:19;100769.66;;;16.83;42.83
80574;BME280;69929;52.390;13.078;2023-05-10T08:32:44;100780.50;;;16.69;42.86
80574;BME280;69929;52.390;13.078;2023-05-10T08:35:10;100773.56;;;16.66;43.68
80574;BME280;69929;52.390;13.078;2023-05-10T08:37:35;100774.63;;;16.90;42.65
80574;BME280;69929;52.390;13.078;2023-05-10T08:40:01;100780.56;;;16.93;42.75
80574;BME280;69929;52.390;13.078;2023-05-10T08:42:28;100775.16;;;17.19;42.39
80574;BME280;69929;52.390;13.078;2023-05-10T08:44:56;100783.84;;;17.10;42.24
80574;BME280;69929;52.390;13.078;2023-05-10T08:47:22;100772.03;;;17.01;42.18
80574;BME280;69929;52.390;13.078;2023-05-10T08:49:48;100778.41;;;16.98;42.27
80574;BME280;69929;52.390;13.078;2023-05-10T08:52:17;100779.88;;;17.15;42.29
80574;BME280;69929;52.390;13.078;2023-05-10T08:54:43;100773.94;;;17.12;41.93
80574;BME280;69929;52.390;13.078;2023-05-10T08:57:10;100771.66;;;17.42;42.31
80574;BME280;69929;52.390;13.078;2023-05-10T08:59:35;100772.47;;;17.56;41.71
80574;BME280;69929;52.390;13.078;2023-05-10T09:02:04;100775.06;;;17.45;41.40
80574;BME280;69929;52.390;13.078;2023-05-10T09:04:30;100764.38;;;17.45;41.55
80574;BME280;69929;52.390;13.078;2023-05-10T09:06:56;100766.88;;;17.59;41.70
80574;BME280;69929;52.390;13.078;2023-05-10T09:09:23;100771.13;;;17.61;41.74
80574;BME280;69929;52.390;13.078;2023-05-10T09:11:51;100771.91;;;17.75;40.87
80574;BME280;69929;52.390;13.078;2023-05-10T09:14:18;100773.13;;;17.95;41.19
80574;BME280;69929;52.390;13.078;2023-05-10T09:16:44;100775.38;;;17.88;40.83
80574;BME280;69929;52.390;13.078;2023-05-10T09:19:10;100784.59;;;18.08;41.16
80574;BME280;69929;52.390;13.078;2023-05-10T09:21:36;100779.34;;;18.07;40.73
80574;BME280;69929;52.390;13.078;2023-05-10T09:24:06;100785.81;;;18.15;40.27
80574;BME280;69929;52.390;13.078;2023-05-10T09:26:31;100790.13;;;18.41;40.10
80574;BME280;69929;52.390;13.078;2023-05-10T09:28:59;100786.81;;;18.37;39.99
80574;BME280;69929;52.390;13.078;2023-05-10T09:31:43;100780.75;;;18.58;39.85
80574;BME280;69929;52.390;13.078;2023-05-10T09:34:10;100788.78;;;18.69;39.89
80574;BME280;69929;52.390;13.078;2023-05-10T09:36:35;100783.78;;;18.76;39.53
80574;BME280;69929;52.390;13.078;2023-05-10T09:39:00;100777.84;;;18.72;39.51
80574;BME280;69929;52.390;13.078;2023-05-10T09:41:27;100775.88;;;19.08;39.12
80574;BME280;69929;52.390;13.078;2023-05-10T09:43:55;100780.44;;;19.29;39.09
80574;BME280;69929;52.390;13.078;2023-05-10T09:46:21;100769.28;;;19.12;39.10
80574;BME280;69929;52.390;13.078;2023-05-10T09:48:48;100790.69;;;19.35;38.34
80574;BME280;69929;52.390;13.078;2023-05-10T09:51:24;100786.06;;;19.25;37.85
80574;BME280;69929;52.390;13.078;2023-05-10T09:54:12;100791.69;;;19.55;37.54
80574;BME280;69929;52.390;13.078;2023-05-10T09:56:38;100790.44;;;19.38;37.66
80574;BME280;69929;52.390;13.078;2023-05-10T09:59:06;100791.63;;;19.34;37.72
80574;BME280;69929;52.390;13.078;2023-05-10T10:01:32;100787.13;;;19.46;37.13
80574;BME280;69929;52.390;13.078;2023-05-10T10:03:58;100783.78;;;19.53;37.24
80574;BME280;69929;52.390;13.078;2023-05-10T10:06:24;100797.16;;;19.65;36.46
80574;BME280;69929;52.390;13.078;2023-05-10T10:08:51;100788.59;;;19.82;36.15
80574;BME280;69929;52.390;13.078;2023-05-10T10:11:16;100792.59;;;20.09;36.17
80574;BME280;69929;52.390;13.078;2023-05-10T10:13:42;100787.41;;;20.17;36.28
80574;BME280;69929;52.390;13.078;2023-05-10T10:16:08;100783.75;;;20.18;36.00
80574;BME280;69929;52.390;13.078;2023-05-10T10:18:35;100787.03;;;20.22;35.88
80574;BME280;69929;52.390;13.078;2023-05-10T10:21:05;100786.31;;;20.20;35.79
80574;BME280;69929;52.390;13.078;2023-05-10T10:23:31;100778.38;;;20.18;35.57
80574;BME280;69929;52.390;13.078;2023-05-10T10:25:56;100788.72;;;20.44;35.70
80574;BME280;69929;52.390;13.078;2023-05-10T10:28:46;100788.47;;;20.47;35.69
80574;BME280;69929;52.390;13.078;2023-05-10T10:31:27;100777.44;;;20.50;35.11
80574;BME280;69929;52.390;13.078;2023-05-10T10:34:24;100774.28;;;20.45;35.29
80574;BME280;69929;52.390;13.078;2023-05-10T10:36:51;100765.88;;;20.59;35.63
80574;BME280;69929;52.390;13.078;2023-05-10T10:39:17;100773.63;;;20.74;35.60
80574;BME280;69929;52.390;13.078;2023-05-10T10:41:54;100771.81;;;20.84;34.71
80574;BME280;69929;52.390;13.078;2023-05-10T10:49:42;100770.53;;;21.97;33.36
80574;BME280;69929;52.390;13.078;2023-05-10T10:57:24;100770.38;;;24.11;30.65
80574;BME280;69929;52.390;13.078;2023-05-10T10:59:54;100767.50;;;25.07;28.63
80574;BME280;69929;52.390;13.078;2023-05-10T11:07:55;100768.66;;;25.48;27.50
80574;BME280;69929;52.390;13.078;2023-05-10T11:10:22;100763.50;;;26.68;25.68
80574;BME280;69929;52.390;13.078;2023-05-10T11:13:09;100759.31;;;27.20;24.96
80574;BME280;69929;52.390;13.078;2023-05-10T11:15:37;100763.59;;;26.18;26.62
80574;BME280;69929;52.390;13.078;2023-05-10T11:18:29;100759.50;;;26.31;26.30
80574;BME280;69929;52.390;13.078;2023-05-10T11:20:59;100762.25;;;26.79;26.02
80574;BME280;69929;52.390;13.078;2023-05-10T11:23:32;100754.19;;;26.54;26.31
80574;BME280;69929;52.390;13.078;2023-05-10T11:25:59;100758.25;;;28.22;24.72
80574;BME280;69929;52.390;13.078;2023-05-10T11:28:26;100757.25;;;27.76;24.94
80574;BME280;69929;52.390;13.078;2023-05-10T11:30:52;100750.16;;;27.90;25.13
80574;BME280;69929;52.390;13.078;2023-05-10T11:33:18;100759.00;;;27.92;24.36
80574;BME280;69929;52.390;13.078;2023-05-10T11:35:45;100756.97;;;27.48;25.14
80574;BME280;69929;52.390;13.078;2023-05-10T11:38:11;100758.38;;;27.82;24.19
80574;BME280;69929;52.390;13.078;2023-05-10T11:40:38;100766.44;;;29.18;22.70
80574;BME280;69929;52.390;13.078;2023-05-10T11:43:04;100766.09;;;29.86;21.99
80574;BME280;69929;52.390;13.078;2023-05-10T11:45:34;100760.25;;;29.67;21.90
80574;BME280;69929;52.390;13.078;2023-05-10T11:48:00;100758.31;;;28.88;22.29
80574;BME280;69929;52.390;13.078;2023-05-10T11:50:26;100766.59;;;28.80;22.87
80574;BME280;69929;52.390;13.078;2023-05-10T11:52:53;100760.34;;;30.02;21.20
80574;BME280;69929;52.390;13.078;2023-05-10T11:55:19;100761.97;;;28.80;22.60
80574;BME280;69929;52.390;13.078;2023-05-10T11:57:45;100748.16;;;29.98;21.47
80574;BME280;69929;52.390;13.078;2023-05-10T12:00:12;100760.28;;;30.24;21.20
80574;BME280;69929;52.390;13.078;2023-05-10T12:02:38;100762.94;;;30.10;21.33
80574;BME280;69929;52.390;13.078;2023-05-10T12:05:04;100766.88;;;30.36;20.94
80574;BME280;69929;52.390;13.078;2023-05-10T12:07:31;100766.59;;;28.50;22.90
80574;BME280;69929;52.390;13.078;2023-05-10T12:10:10;100758.16;;;27.69;23.88
80574;BME280;69929;52.390;13.078;2023-05-10T12:12:46;100775.69;;;29.38;22.18
80574;BME280;69929;52.390;13.078;2023-05-10T12:15:22;100763.69;;;28.81;22.51
80574;BME280;69929;52.390;13.078;2023-05-10T12:17:48;100765.72;;;29.89;21.91
80574;BME280;69929;52.390;13.078;2023-05-10T12:22:49;100759.38;;;30.10;21.08
80574;BME280;69929;52.390;13.078;2023-05-10T12:25:15;100771.03;;;31.02;20.79
80574;BME280;69929;52.390;13.078;2023-05-10T12:27:53;100758.03;;;30.34;21.08
80574;BME280;69929;52.390;13.078;2023-05-10T12:30:24;100764.72;;;30.60;20.70
80574;BME280;69929;52.390;13.078;2023-05-10T12:32:51;100759.53;;;31.13;19.79
80574;BME280;69929;52.390;13.078;2023-05-10T12:35:17;100752.50;;;31.79;20.06
80574;BME280;69929;52.390;13.078;2023-05-10T12:37:45;100762.41;;;31.87;19.78
80574;BME280;69929;52.390;13.078;2023-05-10T12:40:11;100766.59;;;32.29;19.29
80574;BME280;69929;52.390;13.078;2023-05-10T12:42:38;100767.53;;;32.75;18.31
80574;BME280;69929;52.390;13.078;2023-05-10T12:45:07;100771.69;;;32.91;18.11
80574;BME280;69929;52.390;13.078;2023-05-10T12:47:33;100761.03;;;32.56;18.97
80574;BME280;69929;52.390;13.078;2023-05-10T12:50:00;100755.28;;;30.55;20.63
80574;BME280;69929;52.390;13.078;2023-05-10T12:52:26;100770.38;;;31.81;19.30
80574;BME280;69929;52.390;13.078;2023-05-10T12:54:52;100774.22;;;33.70;17.83
80574;BME280;69929;52.390;13.078;2023-05-10T12:57:18;100762.81;;;32.10;19.18
80574;BME280;69929;52.390;13.078;2023-05-10T12:59:43;100770.28;;;33.14;18.14
80574;BME280;69929;52.390;13.078;2023-05-10T13:02:09;100767.22;;;31.91;19.02
80574;BME280;69929;52.390;13.078;2023-05-10T13:04:35;100772.97;;;31.08;19.44
80574;BME280;69929;52.390;13.078;2023-05-10T13:07:04;100762.81;;;31.77;19.08
80574;BME280;69929;52.390;13.078;2023-05-10T13:09:29;100767.09;;;31.18;20.44
80574;BME280;69929;52.390;13.078;2023-05-10T13:11:55;100773.88;;;29.67;21.59
80574;BME280;69929;52.390;13.078;2023-05-10T13:14:21;100760.56;;;27.87;23.68
80574;BME280;69929;52.390;13.078;2023-05-10T13:16:47;100768.53;;;29.37;22.17
80574;BME280;69929;52.390;13.078;2023-05-10T13:19:13;100768.66;;;28.78;22.52